Time;durP1;ratioP1;P1;durP2;ratioP2;P2;SDS_P1;SDS_P2;PMS_P1;PMS_P2;Temp;Humidity;BMP_temperature;BMP_pressure;BME280_temperature;BME280_humidity;BME280_pressure;Samples;Min_cycle;Max_cycle;Signal;HPM_P1;HPM_P2
2022/04/29 00:00:24;;;;;;;18.10;7.65;;;;;;;5.63;87.72;103001.84;1039448;28;20659;-79
2022/04/29 00:00:56;;;;;;;19.23;8.80;;;;;;;5.61;87.74;103000.28;1039956;28;20692;-79
2022/04/29 00:01:28;;;;;;;11.93;8.43;;;;;;;5.56;88.08;103001.53;1039834;28;20291;-79
2022/04/29 00:02:00;;;;;;;14.77;7.15;;;;;;;5.59;87.84;103008.34;1040478;28;20300;-79
2022/04/29 00:02:32;;;;;;;13.80;7.25;;;;;;;5.57;88.07;103002.38;1043789;28;20410;-80
2022/04/29 00:03:07;;;;;;;15.57;7.90;;;;;;;5.69;88.54;103005.75;1039830;28;20350;-79
2022/04/29 00:03:38;;;;;;;14.48;7.88;;;;;;;5.57;88.02;103005.00;1039863;28;20292;-79
2022/04/29 00:04:10;;;;;;;15.18;7.88;;;;;;;5.48;88.31;103000.50;1039818;28;20299;-79
2022/04/29 00:04:43;;;;;;;13.32;7.80;;;;;;;5.43;88.48;103010.59;1040364;28;20314;-79
2022/04/29 00:05:16;;;;;;;13.75;8.70;;;;;;;5.55;88.43;103006.94;1044036;28;20310;-79
2022/04/29 00:05:55;;;;;;;13.10;8.50;;;;;;;5.55;88.45;103005.13;1042396;28;20274;-80
2022/04/29 00:06:28;;;;;;;14.15;7.50;;;;;;;5.57;88.84;103007.66;1044487;28;20295;-79
2022/04/29 00:07:03;;;;;;;11.93;7.43;;;;;;;5.34;88.74;103006.09;1044849;28;20302;-79
2022/04/29 00:07:37;;;;;;;11.77;7.43;;;;;;;5.52;88.79;103008.03;1040604;28;20383;-79
2022/04/29 00:08:12;;;;;;;14.55;7.45;;;;;;;5.42;88.90;103009.78;1036470;28;20679;-79
2022/04/29 00:08:43;;;;;;;13.55;8.60;;;;;;;5.55;88.99;103012.22;1032463;28;20297;-79
2022/04/29 00:09:15;;;;;;;13.23;8.18;;;;;;;5.51;88.99;103005.53;1033553;28;20305;-79
2022/04/29 00:09:47;;;;;;;12.57;7.15;;;;;;;5.46;89.08;103010.34;1038102;28;20415;-79
2022/04/29 00:10:19;;;;;;;10.63;8.07;;;;;;;5.48;89.29;103013.72;1044849;28;20311;-79
2022/04/29 00:10:51;;;;;;;18.77;8.05;;;;;;;5.54;89.13;103015.84;1044876;28;20310;-79
2022/04/29 00:11:23;;;;;;;12.50;8.50;;;;;;;5.55;89.07;103010.44;1040601;28;20300;-79
2022/04/29 00:11:54;;;;;;;19.88;8.95;;;;;;;5.61;88.94;103014.34;1040634;28;20287;-79
2022/04/29 00:12:26;;;;;;;14.88;8.30;;;;;;;5.59;88.70;103011.00;1041097;28;20726;-79
2022/04/29 00:12:59;;;;;;;19.10;8.75;;;;;;;5.55;88.93;103020.16;1040988;28;20292;-79
2022/04/29 00:13:31;;;;;;;17.35;7.75;;;;;;;5.55;88.81;103009.59;1040599;28;20291;-80
2022/04/29 00:14:02;;;;;;;16.40;9.23;;;;;;;5.59;88.62;103008.34;1040443;28;20284;-79
2022/04/29 00:14:34;;;;;;;13.55;8.88;;;;;;;5.66;88.41;103001.56;1041362;28;20292;-79
2022/04/29 00:15:07;;;;;;;14.90;7.65;;;;;;;5.62;88.35;103005.44;1041278;28;20904;-79
2022/04/29 00:15:39;;;;;;;11.80;7.85;;;;;;;5.62;88.35;103004.63;1044798;28;20299;-80
2022/04/29 00:16:11;;;;;;;14.48;10.25;;;;;;;5.50;88.53;103002.06;1044698;28;20401;-79
2022/04/29 00:16:42;;;;;;;12.65;9.68;;;;;;;5.54;88.65;103005.28;1040513;28;20296;-79
2022/04/29 00:17:14;;;;;;;15.02;8.82;;;;;;;5.53;88.53;102999.16;1040667;28;20710;-79
2022/04/29 00:17:47;;;;;;;11.35;9.23;;;;;;;5.56;88.68;103001.53;1036968;28;20791;-79
2022/04/29 00:18:18;;;;;;;18.00;9.52;;;;;;;5.49;88.70;103004.81;1041353;28;20773;-79
2022/04/29 00:18:50;;;;;;;18.77;9.65;;;;;;;5.52;88.66;103004.56;1040802;28;20296;-79
2022/04/29 00:19:21;;;;;;;14.40;8.35;;;;;;;5.52;88.54;102997.47;1041557;28;20694;-77
2022/04/29 00:19:53;;;;;;;13.73;9.05;;;;;;;5.48;88.42;103000.50;1045562;28;20299;-79
2022/04/29 00:20:25;;;;;;;18.75;9.38;;;;;;;5.52;88.56;102999.28;1041058;28;20296;-79
2022/04/29 00:20:57;;;;;;;13.48;8.75;;;;;;;5.54;88.55;102992.06;1044676;28;20330;-79
2022/04/29 00:21:28;;;;;;;13.93;9.48;;;;;;;5.57;88.20;102994.44;1040528;28;20350;-79
2022/04/29 00:22:00;;;;;;;13.68;9.07;;;;;;;5.61;88.32;103000.28;1033021;28;20297;-79
2022/04/29 00:22:32;;;;;;;14.85;8.00;;;;;;;5.56;88.49;102995.41;1036305;28;20308;-79
2022/04/29 00:23:03;;;;;;;21.23;10.32;;;;;;;5.52;88.37;102989.53;1036794;28;20312;-80
2022/04/29 00:23:35;;;;;;;12.32;8.85;;;;;;;5.47;88.32;102998.81;1040532;28;20810;-79
2022/04/29 00:24:09;;;;;;;13.73;9.25;;;;;;;5.46;88.19;102992.69;1032368;28;20814;-79
2022/04/29 00:24:41;;;;;;;12.25;8.18;;;;;;;5.48;88.31;102997.88;1034095;28;20724;-79
2022/04/29 00:25:13;;;;;;;12.70;9.15;;;;;;;5.43;88.47;102997.38;1040548;28;20339;-79
2022/04/29 00:25:44;;;;;;;18.02;9.35;;;;;;;5.43;88.39;102998.22;1038843;28;20301;-79
2022/04/29 00:26:16;;;;;;;16.45;9.40;;;;;;;5.43;88.52;102997.38;1045232;28;20302;-79
2022/04/29 00:26:48;;;;;;;20.05;9.45;;;;;;;5.44;88.48;103001.72;1040937;28;20798;-79
2022/04/29 00:27:21;;;;;;;12.75;10.02;;;;;;;5.38;88.81;103002.22;1037073;28;20350;-79
2022/04/29 00:27:52;;;;;;;13.75;9.23;;;;;;;5.41;88.68;103001.97;1036458;28;20327;-79
2022/04/29 00:28:25;;;;;;;19.45;9.85;;;;;;;5.44;88.77;103005.19;1032955;28;20305;-79
2022/04/29 00:28:57;;;;;;;13.05;9.18;;;;;;;5.42;88.70;102998.38;1036635;28;20809;-79
2022/04/29 00:29:28;;;;;;;15.32;10.05;;;;;;;5.36;88.70;103001.53;1028762;28;20312;-79
2022/04/29 00:30:00;;;;;;;18.25;9.82;;;;;;;5.34;88.84;102990.25;1028812;28;20305;-79
2022/04/29 00:30:32;;;;;;;16.98;9.50;;;;;;;5.38;88.86;102991.66;1028533;28;20293;-79
2022/04/29 00:31:04;;;;;;;15.88;10.32;;;;;;;5.39;88.96;102993.34;1028935;28;20310;-79
2022/04/29 00:31:36;;;;;;;18.02;9.30;;;;;;;5.37;89.11;102993.47;1033828;28;20305;-79
2022/04/29 00:32:10;;;;;;;18.73;10.30;;;;;;;5.37;89.07;102992.63;1037426;28;20281;-77
2022/04/29 00:32:41;;;;;;;13.80;9.07;;;;;;;5.39;88.95;102993.34;1036748;28;20303;-78
2022/04/29 00:33:13;;;;;;;14.90;9.70;;;;;;;5.34;89.02;103001.66;1031511;28;20297;-78
2022/04/29 00:33:44;;;;;;;15.68;9.70;;;;;;;5.44;88.88;103007.00;1024901;28;20358;-77
2022/04/29 00:34:17;;;;;;;10.73;8.80;;;;;;;5.36;88.99;102999.72;1024105;28;20358;-77
2022/04/29 00:34:49;;;;;;;13.50;9.88;;;;;;;5.32;89.04;103002.75;1027455;28;20321;-77
2022/04/29 00:35:21;;;;;;;23.42;12.68;;;;;;;5.35;89.12;102997.22;1025460;28;20302;-78
2022/04/29 00:35:54;;;;;;;15.57;10.20;;;;;;;5.39;89.04;103003.91;1031313;28;20656;-77
2022/04/29 00:36:25;;;;;;;21.45;10.10;;;;;;;5.33;89.11;102999.16;1036106;28;20382;-77
2022/04/29 00:36:57;;;;;;;13.32;9.25;;;;;;;5.31;89.35;102996.63;1040718;28;20328;-77
2022/04/29 00:37:30;;;;;;;13.68;9.85;;;;;;;5.34;89.26;102995.53;1044267;28;20291;-77
2022/04/29 00:38:01;;;;;;;16.17;10.63;;;;;;;5.34;89.35;102996.38;1043986;28;20299;-77
2022/04/29 00:38:33;;;;;;;16.33;10.57;;;;;;;5.24;89.34;102988.38;1040161;28;20823;-77
2022/04/29 00:39:05;;;;;;;14.85;10.95;;;;;;;5.30;89.53;102994.97;1041301;28;20299;-78
2022/04/29 00:39:42;;;;;;;13.95;9.48;;;;;;;5.34;89.60;102995.53;1038272;28;20327;-77
2022/04/29 00:40:16;;;;;;;14.13;9.70;;;;;;;5.31;89.48;102986.06;1035750;28;20774;-77
2022/04/29 00:40:48;;;;;;;17.50;9.57;;;;;;;5.34;89.53;102990.25;1033486;28;20317;-77
2022/04/29 00:41:22;;;;;;;12.00;9.43;;;;;;;5.33;89.56;102983.28;1036725;28;20293;-77
2022/04/29 00:41:53;;;;;;;16.92;10.65;;;;;;;5.26;89.77;102994.38;1036587;28;20320;-77
2022/04/29 00:42:25;;;;;;;19.60;10.85;;;;;;;5.26;89.45;102991.75;1039949;28;20401;-77
2022/04/29 00:42:57;;;;;;;15.82;11.30;;;;;;;5.27;89.70;102985.50;1039716;28;20291;-77
2022/04/29 00:43:30;;;;;;;20.63;10.95;;;;;;;5.29;89.72;102982.72;1031546;28;20306;-77
2022/04/29 00:44:08;;;;;;;12.93;10.75;;;;;;;5.27;89.77;102988.13;1031410;28;20309;-77
2022/04/29 00:44:42;;;;;;;18.67;11.32;;;;;;;5.35;89.65;102991.94;1030820;28;20313;-77
2022/04/29 00:45:15;;;;;;;20.30;10.65;;;;;;;5.31;89.61;102985.22;1027669;28;20302;-77
2022/04/29 00:45:46;;;;;;;18.20;10.48;;;;;;;5.28;89.59;102981.88;1031748;28;20297;-77
2022/04/29 00:46:18;;;;;;;16.27;10.23;;;;;;;5.31;89.48;102985.22;1031502;28;20286;-77
2022/04/29 00:46:51;;;;;;;12.85;10.75;;;;;;;5.27;89.70;102988.13;1032402;28;20340;-77
2022/04/29 00:47:26;;;;;;;18.58;12.32;;;;;;;5.28;89.56;102987.16;1037065;28;20301;-78
2022/04/29 00:47:57;;;;;;;17.60;10.27;;;;;;;5.28;89.90;102989.81;1035159;28;20400;-78
2022/04/29 00:48:29;;;;;;;21.95;12.27;;;;;;;5.30;89.70;102981.75;1044058;28;20307;-79
2022/04/29 00:49:01;;;;;;;17.65;10.82;;;;;;;5.27;89.55;102982.84;1044688;28;20295;-79
2022/04/29 00:49:33;;;;;;;22.52;10.25;;;;;;;5.20;89.94;102983.47;1040654;28;20299;-79
2022/04/29 00:50:06;;;;;;;19.45;11.02;;;;;;;5.18;89.88;102985.41;1044314;28;20299;-79
2022/04/29 00:50:37;;;;;;;13.13;10.15;;;;;;;5.16;89.87;102982.03;1045000;28;20370;-79
2022/04/29 00:51:09;;;;;;;22.85;10.60;;;;;;;5.10;90.21;102985.22;1045174;28;20375;-79
2022/04/29 00:51:43;;;;;;;22.88;11.32;;;;;;;5.12;90.10;102978.81;1044799;28;20303;-79
2022/04/29 00:52:17;;;;;;;16.10;10.82;;;;;;;5.07;90.19;102975.75;1041053;28;20627;-77
2022/04/29 00:52:54;;;;;;;19.40;10.82;;;;;;;5.10;90.23;102980.75;1040579;28;20324;-79
2022/04/29 00:53:27;;;;;;;14.80;11.32;;;;;;;5.10;90.53;102972.84;1034164;28;20807;-79
2022/04/29 00:54:01;;;;;;;16.45;11.02;;;;;;;5.06;90.18;102974.06;1034020;28;20309;-79
2022/04/29 00:54:38;;;;;;;16.92;10.73;;;;;;;5.00;90.92;102971.94;1032353;28;20293;-79
2022/04/29 00:55:11;;;;;;;18.90;11.55;;;;;;;5.04;90.47;102965.44;1028390;28;20441;-79
2022/04/29 00:55:44;;;;;;;19.15;11.55;;;;;;;5.00;90.18;102966.66;1027812;28;20303;-79
2022/04/29 00:56:17;;;;;;;16.02;10.75;;;;;;;5.02;90.73;102963.88;1030743;28;20297;-79
2022/04/29 00:56:52;;;;;;;18.17;11.60;;;;;;;5.07;90.79;102972.25;1033803;28;20304;-79
2022/04/29 00:57:36;;;;;;;15.57;11.35;;;;;;;5.03;90.64;102968.19;1029459;28;20302;-79
2022/04/29 00:58:36;;;;;;;20.02;9.73;;;;;;;4.97;90.59;102973.03;1035289;28;20304;-79
2022/04/29 00:59:15;;;;;;;16.00;10.80;;;;;;;4.92;90.51;102966.44;1035958;28;20291;-79
2022/04/29 00:59:49;;;;;;;20.45;10.95;;;;;;;4.94;90.81;102967.16;1040629;28;20284;-79
2022/04/29 01:00:22;;;;;;;14.73;9.60;;;;;;;4.97;90.92;102966.91;1036289;28;20305;-79
2022/04/29 01:00:53;;;;;;;12.93;9.82;;;;;;;4.96;91.03;102966.06;1038452;28;20364;-79
2022/04/29 01:01:25;;;;;;;12.32;10.57;;;;;;;4.90;90.93;102960.44;1041694;28;20801;-79
2022/04/29 01:01:58;;;;;;;15.48;10.30;;;;;;;4.90;90.75;102965.72;1036960;28;20308;-79
2022/04/29 01:02:31;;;;;;;18.30;11.25;;;;;;;4.90;91.04;102956.00;1036392;28;20293;-79
2022/04/29 01:03:03;;;;;;;16.60;10.90;;;;;;;4.84;91.22;102960.94;1032384;28;20309;-79
2022/04/29 01:03:38;;;;;;;14.65;10.57;;;;;;;4.86;91.10;102959.84;1029575;28;20314;-79
2022/04/29 01:04:14;;;;;;;17.00;11.27;;;;;;;4.84;91.07;102966.22;1033828;28;20798;-79
2022/04/29 01:04:55;;;;;;;11.43;10.02;;;;;;;4.75;91.19;102961.72;1036423;28;20297;-79
2022/04/29 01:05:26;;;;;;;13.80;10.48;;;;;;;4.82;91.34;102962.88;1040360;28;20295;-79
2022/04/29 01:05:58;;;;;;;19.63;11.57;;;;;;;4.89;91.25;102953.47;1040589;28;20045;-79
2022/04/29 01:06:31;;;;;;;15.90;10.25;;;;;;;4.92;91.47;102958.50;1040424;28;20280;-79
2022/04/29 01:07:03;;;;;;;21.45;10.20;;;;;;;4.93;91.24;102961.06;1037199;28;20824;-80
2022/04/29 01:07:35;;;;;;;18.17;10.70;;;;;;;4.86;91.25;102959.03;1041223;28;20307;-79
2022/04/29 01:08:07;;;;;;;19.30;10.57;;;;;;;4.85;91.46;102963.47;1036258;28;20386;-79
2022/04/29 01:08:39;;;;;;;14.90;10.93;;;;;;;4.87;91.38;102956.25;1032940;28;20306;-79
2022/04/29 01:09:10;;;;;;;16.90;11.50;;;;;;;4.94;91.44;102959.25;1036453;28;20347;-80
2022/04/29 01:09:42;;;;;;;14.27;11.48;;;;;;;4.87;90.88;102960.69;1032560;28;20392;-79
2022/04/29 01:10:16;;;;;;;21.15;11.88;;;;;;;4.88;91.31;102965.00;1033260;28;20308;-79
2022/04/29 01:10:48;;;;;;;14.35;11.68;;;;;;;4.94;91.11;102959.25;1036360;28;20297;-78
2022/04/29 01:11:23;;;;;;;17.17;11.73;;;;;;;4.91;91.36;102962.13;1037496;28;22074;-79
2022/04/29 01:11:54;;;;;;;16.45;10.82;;;;;;;4.88;91.22;102957.09;1036642;28;20694;-77
2022/04/29 01:12:27;;;;;;;19.33;9.88;;;;;;;4.88;91.27;102952.66;1031384;28;20301;-79
2022/04/29 01:13:02;;;;;;;13.82;10.63;;;;;;;4.85;91.24;102957.34;1024305;29;20298;-79
2022/04/29 01:13:34;;;;;;;20.38;10.27;;;;;;;4.81;91.42;102950.66;1026353;28;20306;-79
2022/04/29 01:14:06;;;;;;;17.23;10.20;;;;;;;4.82;91.16;102965.53;1037409;28;20739;-79
2022/04/29 01:14:38;;;;;;;17.60;11.05;;;;;;;4.85;90.95;102960.00;1037297;28;20308;-79
2022/04/29 01:15:14;;;;;;;20.38;11.50;;;;;;;4.82;91.38;102957.59;1036094;28;20316;-79
2022/04/29 01:15:46;;;;;;;14.52;10.73;;;;;;;4.81;91.61;102964.69;1037141;28;20315;-79
2022/04/29 01:16:19;;;;;;;19.67;11.43;;;;;;;4.79;91.53;102955.22;1035233;28;20371;-79
2022/04/29 01:16:50;;;;;;;15.98;11.82;;;;;;;4.77;91.57;102959.78;1039196;28;20307;-79
2022/04/29 01:17:22;;;;;;;19.35;10.40;;;;;;;4.79;91.52;102963.13;1036370;28;20284;-79
2022/04/29 01:17:58;;;;;;;15.68;11.13;;;;;;;4.83;91.37;102956.63;1037514;28;20304;-79
2022/04/29 01:18:29;;;;;;;16.42;11.43;;;;;;;4.75;91.17;102962.56;1041129;28;20741;-79
2022/04/29 01:19:01;;;;;;;19.13;11.50;;;;;;;4.75;91.68;102961.72;1036155;28;20668;-80
2022/04/29 01:19:33;;;;;;;18.02;10.88;;;;;;;4.73;91.04;102955.72;1028471;28;20298;-79
2022/04/29 01:20:07;;;;;;;16.88;11.88;;;;;;;4.72;91.52;102959.34;1028964;28;20317;-79
2022/04/29 01:20:39;;;;;;;19.50;11.80;;;;;;;4.72;91.40;102954.88;1033875;28;20308;-79
2022/04/29 01:21:12;;;;;;;18.38;10.70;;;;;;;4.64;91.28;102966.06;1038178;28;20308;-79
2022/04/29 01:21:44;;;;;;;22.00;12.48;;;;;;;4.75;91.54;102957.28;1032332;28;20724;-79
2022/04/29 01:22:15;;;;;;;21.00;12.55;;;;;;;4.80;91.88;102962.19;1024245;29;20310;-79
2022/04/29 01:22:47;;;;;;;15.80;11.60;;;;;;;4.78;91.45;102961.47;1024993;28;20494;-80
2022/04/29 01:23:19;;;;;;;16.15;12.15;;;;;;;4.76;91.61;102958.13;1030080;28;20305;-79
2022/04/29 01:23:50;;;;;;;20.08;13.10;;;;;;;4.82;91.51;102960.25;1041048;28;20303;-79
2022/04/29 01:24:22;;;;;;;18.65;12.68;;;;;;;4.80;91.67;102956.91;1044531;28;20327;-79
2022/04/29 01:24:54;;;;;;;25.50;14.18;;;;;;;4.83;91.53;102956.63;1040396;28;20307;-79
2022/04/29 01:25:26;;;;;;;13.77;11.85;;;;;;;4.82;91.63;102957.59;1032177;28;20673;-79
2022/04/29 01:25:59;;;;;;;18.73;12.25;;;;;;;4.86;91.43;102962.50;1032825;28;20834;-79
2022/04/29 01:26:31;;;;;;;18.42;12.07;;;;;;;4.88;91.66;102959.72;1036908;28;20304;-79
2022/04/29 01:27:10;;;;;;;18.52;13.57;;;;;;;4.85;91.51;102968.75;1029454;28;20425;-79
2022/04/29 01:27:44;;;;;;;18.45;11.48;;;;;;;4.83;91.57;102964.56;1034665;28;20317;-79
2022/04/29 01:28:16;;;;;;;22.70;12.38;;;;;;;4.79;91.69;102957.84;1030057;28;20038;-79
2022/04/29 01:29:17;;;;;;;18.60;12.02;;;;;;;4.79;91.56;102949.94;1030338;28;20348;-79
2022/04/29 01:29:55;;;;;;;16.85;11.90;;;;;;;4.77;91.45;102958.00;1035565;28;20771;-79
2022/04/29 01:36:19;;;;;;;17.95;10.32;;;;;;;4.79;91.63;102952.59;1043113;28;20687;-79
2022/04/29 01:36:51;;;;;;;14.27;9.75;;;;;;;4.76;91.54;102947.56;1043838;28;20299;-79
2022/04/29 01:37:22;;;;;;;13.80;9.73;;;;;;;4.76;91.48;102948.41;1040377;28;20304;-79
2022/04/29 01:37:54;;;;;;;13.35;10.05;;;;;;;4.77;91.36;102950.06;1040406;28;20665;-79
2022/04/29 01:38:26;;;;;;;16.42;10.50;;;;;;;4.81;91.64;102951.47;1040705;28;20296;-79
2022/04/29 01:38:58;;;;;;;18.95;11.35;;;;;;;4.77;91.30;102951.88;1040200;28;20315;-79
2022/04/29 01:39:30;;;;;;;21.23;10.85;;;;;;;4.76;91.98;102948.41;1036583;28;20802;-79
2022/04/29 01:40:03;;;;;;;22.23;12.00;;;;;;;4.74;91.96;102944.22;1032940;28;20305;-77
2022/04/29 01:40:35;;;;;;;16.65;11.45;;;;;;;4.79;91.71;102955.22;1037221;28;20308;-77
2022/04/29 01:41:13;;;;;;;25.63;11.80;;;;;;;4.74;91.61;102949.47;1032138;28;20428;-79
2022/04/29 01:41:47;;;;;;;16.30;11.57;;;;;;;4.74;91.79;102944.22;1034636;28;20700;-79
2022/04/29 01:42:19;;;;;;;20.13;10.98;;;;;;;4.65;91.54;102946.63;1034679;28;20311;-79
2022/04/29 01:42:57;;;;;;;13.98;9.90;;;;;;;4.67;92.01;102943.03;1034506;28;20356;-79
2022/04/29 01:43:28;;;;;;;16.40;11.60;;;;;;;4.71;91.77;102945.31;1035983;28;20807;-79
2022/04/29 01:44:00;;;;;;;23.73;12.20;;;;;;;4.68;91.95;102945.56;1037744;28;20309;-79
2022/04/29 01:44:32;;;;;;;13.30;10.48;;;;;;;4.69;91.91;102941.94;1036569;28;20370;-79
2022/04/29 01:45:04;;;;;;;19.48;11.05;;;;;;;4.71;92.30;102947.94;1036164;28;20312;-79
2022/04/29 01:45:49;;;;;;;15.60;10.75;;;;;;;4.70;91.72;102948.06;1031861;28;20308;-79
2022/04/29 01:46:34;;;;;;;17.35;10.95;;;;;;;4.75;91.77;102945.88;1034174;28;20297;-79
2022/04/29 01:47:31;;;;;;;14.98;10.52;;;;;;;4.76;91.61;102942.28;1041646;28;20300;-79
2022/04/29 01:48:12;;;;;;;13.50;10.45;;;;;;;4.73;91.42;102937.25;1038764;28;20616;-79
2022/04/29 01:48:51;;;;;;;24.30;12.00;;;;;;;4.72;91.69;102935.56;1033069;28;20288;-77
2022/04/29 01:49:37;;;;;;;19.60;12.25;;;;;;;4.70;91.78;102938.34;1032101;28;20807;-79
2022/04/29 01:50:09;;;;;;;14.95;10.70;;;;;;;4.67;91.64;102937.75;1031881;28;20389;-79
2022/04/29 01:50:42;;;;;;;17.50;10.68;;;;;;;4.61;91.70;102939.91;1035827;28;20387;-78
2022/04/29 01:51:13;;;;;;;14.55;10.13;;;;;;;4.60;91.60;102935.59;1031105;28;20298;-79
2022/04/29 01:51:45;;;;;;;19.05;11.13;;;;;;;4.57;91.91;102938.50;1032501;28;20297;-79
2022/04/29 01:52:17;;;;;;;14.48;10.85;;;;;;;4.49;91.83;102940.09;1032499;28;20362;-79
2022/04/29 01:52:49;;;;;;;26.45;11.05;;;;;;;4.60;91.73;102938.25;1032489;28;20313;-79
2022/04/29 01:53:21;;;;;;;15.45;11.30;;;;;;;4.62;91.90;102935.47;1036699;28;20390;-79
2022/04/29 01:53:53;;;;;;;14.80;10.15;;;;;;;4.58;91.95;102928.78;1032427;28;20826;-79
2022/04/29 01:54:26;;;;;;;14.40;10.35;;;;;;;4.56;91.70;102931.53;1030542;28;20831;-79
2022/04/29 01:54:57;;;;;;;15.70;10.27;;;;;;;4.62;92.12;102917.84;1031266;28;20795;-79
2022/04/29 01:55:29;;;;;;;19.75;10.95;;;;;;;4.59;91.84;102935.72;1029509;28;20317;-79
2022/04/29 01:56:00;;;;;;;20.05;12.10;;;;;;;4.56;92.01;102931.53;1036486;28;20396;-79
2022/04/29 01:56:35;;;;;;;19.20;11.75;;;;;;;4.50;92.29;102925.94;1035914;28;20308;-79
2022/04/29 01:57:08;;;;;;;16.73;10.52;;;;;;;4.49;92.37;102933.00;1031991;28;20807;-79
2022/04/29 01:57:40;;;;;;;17.25;10.52;;;;;;;4.54;91.99;102928.19;1029107;28;20294;-79
2022/04/29 01:58:12;;;;;;;13.18;10.27;;;;;;;4.52;92.04;102922.19;1029035;28;20310;-79
2022/04/29 01:58:43;;;;;;;17.50;12.43;;;;;;;4.56;92.22;102920.97;1032190;28;20736;-79
2022/04/29 01:59:15;;;;;;;17.33;12.02;;;;;;;4.54;92.44;102928.19;1028529;28;20306;-79
2022/04/29 01:59:58;;;;;;;19.25;12.27;;;;;;;4.56;92.41;102928.06;1032295;28;20309;-78
2022/04/29 02:00:48;;;;;;;18.83;10.68;;;;;;;4.60;92.15;102918.94;1036036;28;20881;-78
2022/04/29 02:01:20;;;;;;;10.80;9.52;;;;;;;4.58;92.10;102923.50;1038844;28;20311;-78
2022/04/29 02:01:51;;;;;;;19.83;11.88;;;;;;;4.59;92.33;102926.00;1033886;28;20300;-77
2022/04/29 02:02:25;;;;;;;17.33;11.00;;;;;;;4.61;92.10;102933.81;1034540;28;20311;-77
2022/04/29 02:02:56;;;;;;;18.15;11.43;;;;;;;4.56;92.38;102923.63;1028048;28;20381;-78
2022/04/29 02:03:29;;;;;;;16.98;10.80;;;;;;;4.54;92.18;102920.28;1028699;28;20700;-77
2022/04/29 02:04:01;;;;;;;23.33;10.95;;;;;;;4.56;92.38;102926.25;1032123;28;20392;-77
2022/04/29 02:04:34;;;;;;;21.50;10.77;;;;;;;4.51;92.24;102925.81;1032508;28;20646;-78
2022/04/29 02:05:11;;;;;;;16.23;11.40;;;;;;;4.56;92.41;102920.16;1033605;28;20314;-79
2022/04/29 02:05:42;;;;;;;24.58;12.32;;;;;;;4.57;92.51;102920.03;1034324;28;20695;-79
2022/04/29 02:06:14;;;;;;;19.65;12.07;;;;;;;4.52;92.17;102919.56;1032043;28;20311;-79
2022/04/29 02:06:46;;;;;;;15.95;11.27;;;;;;;4.54;92.25;102922.91;1031825;28;20309;-79
2022/04/29 02:07:18;;;;;;;19.88;10.52;;;;;;;4.23;91.68;102916.66;1028448;28;20389;-79
2022/04/29 02:07:51;;;;;;;16.05;10.13;;;;;;;4.34;91.88;102915.78;1027969;28;20313;-79
2022/04/29 02:08:23;;;;;;;15.10;10.45;;;;;;;4.35;92.21;102922.72;1028058;28;20298;-79
2022/04/29 02:08:54;;;;;;;19.42;11.63;;;;;;;4.49;92.07;102917.19;1024699;29;20354;-79
2022/04/29 02:09:27;;;;;;;16.75;11.30;;;;;;;4.53;92.01;102923.88;1028852;28;20305;-77
2022/04/29 02:09:59;;;;;;;17.95;10.82;;;;;;;4.48;91.99;102918.16;1030743;28;20297;-78
2022/04/29 02:10:30;;;;;;;19.95;12.50;;;;;;;4.53;92.35;102923.03;1026852;28;20848;-77
2022/04/29 02:11:02;;;;;;;15.88;11.70;;;;;;;4.57;92.31;102917.38;1027840;28;20298;-78
2022/04/29 02:11:34;;;;;;;14.90;10.77;;;;;;;4.59;92.20;102917.25;1028530;28;20724;-77
2022/04/29 02:12:29;;;;;;;14.63;10.80;;;;;;;4.50;92.19;102920.66;1017297;29;20296;-79
2022/04/29 02:13:01;;;;;;;19.67;11.15;;;;;;;4.53;91.93;102917.75;1020474;29;20291;-77
2022/04/29 02:13:46;;;;;;;15.90;11.43;;;;;;;4.54;92.21;102911.53;1036567;28;20316;-77
2022/04/29 02:14:29;;;;;;;17.75;10.65;;;;;;;4.53;92.13;102913.31;1037299;28;20893;-77
2022/04/29 02:15:03;;;;;;;13.52;10.40;;;;;;;4.45;92.32;102913.13;1034098;28;20297;-77
2022/04/29 02:15:41;;;;;;;15.88;10.82;;;;;;;4.47;92.50;102919.09;1034690;28;20675;-77
2022/04/29 02:16:18;;;;;;;14.52;11.35;;;;;;;4.46;92.15;102920.06;1029546;28;20302;-77
2022/04/29 02:16:49;;;;;;;18.50;10.82;;;;;;;4.45;92.29;102918.41;1029419;28;20452;-77
2022/04/29 02:17:21;;;;;;;10.90;9.82;;;;;;;4.44;92.20;102922.00;1032262;28;20355;-77
2022/04/29 02:17:55;;;;;;;16.45;10.43;;;;;;;4.38;92.60;102922.47;1031523;28;20391;-77
2022/04/29 02:18:28;;;;;;;19.55;11.57;;;;;;;4.38;92.83;102924.28;1031948;28;20496;-77
2022/04/29 02:19:00;;;;;;;14.93;10.40;;;;;;;4.37;92.70;102920.78;1032700;28;20305;-79
2022/04/29 02:19:33;;;;;;;21.60;11.57;;;;;;;4.23;92.86;102921.09;1037219;28;20297;-79
2022/04/29 02:20:05;;;;;;;16.90;11.43;;;;;;;4.31;92.96;102921.31;1036796;28;20803;-79
2022/04/29 02:20:38;;;;;;;14.10;10.48;;;;;;;4.35;92.83;102926.19;1040954;28;20291;-78
2022/04/29 02:21:10;;;;;;;18.38;11.95;;;;;;;4.42;93.17;102926.56;1040329;28;20308;-77
2022/04/29 02:21:42;;;;;;;21.50;12.30;;;;;;;4.39;92.84;102916.25;1041015;28;20303;-77
2022/04/29 02:22:14;;;;;;;15.40;12.20;;;;;;;4.45;93.00;102923.69;1039438;28;20404;-77
2022/04/29 02:22:46;;;;;;;18.15;11.82;;;;;;;4.47;92.49;102926.19;1035379;28;20304;-78
2022/04/29 02:23:17;;;;;;;22.20;13.23;;;;;;;4.40;92.70;102915.31;1030659;28;20799;-77
2022/04/29 02:23:49;;;;;;;25.15;13.13;;;;;;;4.45;92.92;102923.69;1031409;28;20305;-77
2022/04/29 02:24:21;;;;;;;20.55;11.95;;;;;;;4.45;92.99;102923.69;1031924;28;20320;-77
2022/04/29 02:24:52;;;;;;;21.13;12.18;;;;;;;4.37;92.85;102926.06;1035056;28;20293;-78
2022/04/29 02:25:24;;;;;;;21.25;10.63;;;;;;;4.37;92.52;102912.88;1035075;28;20702;-77
2022/04/29 02:25:57;;;;;;;22.85;12.73;;;;;;;4.39;92.43;102913.63;1033635;28;20285;-77
2022/04/29 02:26:29;;;;;;;15.93;11.55;;;;;;;4.34;92.49;102919.25;1035950;28;20339;-77
2022/04/29 02:27:02;;;;;;;18.98;11.13;;;;;;;4.31;92.47;102918.66;1036005;28;20293;-78
2022/04/29 02:27:35;;;;;;;15.63;10.38;;;;;;;4.26;92.48;102923.47;1031572;28;20674;-78
2022/04/29 02:28:07;;;;;;;18.85;11.38;;;;;;;4.33;92.54;102924.66;1028001;28;20302;-77
2022/04/29 02:28:40;;;;;;;28.55;11.90;;;;;;;4.30;92.85;102920.47;1027111;28;20334;-77
2022/04/29 02:29:11;;;;;;;26.15;11.88;;;;;;;4.34;92.71;102921.06;1027611;28;20305;-78
2022/04/29 02:29:43;;;;;;;14.85;10.85;;;;;;;4.33;92.70;102924.66;1026602;28;20337;-77
2022/04/29 02:30:18;;;;;;;19.42;10.75;;;;;;;4.35;92.43;102922.72;1026512;28;20345;-77
2022/04/29 02:30:50;;;;;;;17.88;11.38;;;;;;;4.38;92.62;102924.28;1027947;28;20306;-77
2022/04/29 02:31:22;;;;;;;17.92;11.43;;;;;;;4.35;93.02;102913.00;1027590;28;20309;-77
2022/04/29 02:31:55;;;;;;;18.67;11.00;;;;;;;4.28;92.91;102909.19;1024771;28;20307;-77
2022/04/29 02:32:27;;;;;;;15.55;10.82;;;;;;;4.26;93.02;102919.03;1026876;28;20314;-77
2022/04/29 02:32:59;;;;;;;16.00;10.13;;;;;;;4.24;92.93;102910.41;1027578;28;20751;-77
2022/04/29 02:33:30;;;;;;;13.80;10.32;;;;;;;4.25;93.13;102911.25;1023544;29;20743;-77
2022/04/29 02:34:03;;;;;;;20.33;12.07;;;;;;;4.18;93.08;102910.06;1024429;28;20306;-77
2022/04/29 02:34:36;;;;;;;22.17;11.68;;;;;;;4.21;93.19;102915.94;1028264;28;20897;-77
2022/04/29 02:35:08;;;;;;;21.52;12.73;;;;;;;4.17;93.04;102909.25;1032793;28;20447;-76
2022/04/29 02:35:40;;;;;;;17.20;11.70;;;;;;;4.25;92.98;102911.25;1030767;28;20301;-77
2022/04/29 02:36:12;;;;;;;18.42;11.75;;;;;;;4.25;93.42;102912.09;1031851;28;20918;-77
2022/04/29 02:36:44;;;;;;;17.77;10.45;;;;;;;4.26;93.15;102908.50;1031940;28;21117;-77
2022/04/29 02:37:17;;;;;;;19.65;12.18;;;;;;;4.25;93.51;102912.09;1037467;28;20305;-77
2022/04/29 02:37:52;;;;;;;21.88;12.23;;;;;;;4.37;93.50;102915.53;1036364;28;20309;-77
2022/04/29 02:38:24;;;;;;;19.88;12.10;;;;;;;4.38;93.17;102914.56;1035847;28;20866;-77
2022/04/29 02:38:57;;;;;;;19.40;12.13;;;;;;;4.35;93.41;102914.81;1035398;28;20301;-77
2022/04/29 02:39:31;;;;;;;17.13;12.15;;;;;;;4.37;93.38;102914.69;1035230;28;20829;-77
2022/04/29 02:40:04;;;;;;;20.75;12.55;;;;;;;4.32;93.39;102912.44;1027280;28;20306;-77